< Cyclone 202121 2021 Season Cyclone 202123 >
Cyclone 202122 (Seroja)
General InformationDetailed Track InformationTrack Information on Google Maps || ResourceGoogle EarthGE AnimationAtom FeedGeoJSON
Year Month Day Hour Lat. Long. Wind (kt) Gust (kt) Direc. of Major Storm Axis Radius of Major Storm Axis (nm) Radius of Minor Storm Axis (nm) Direc. of Major Gale Axis Radius of Major Gale Axis (nm) Radius of Minor Gale Axis (nm) Image
2021 4 2 12 -11.0 122.5 25 45 symmetric - - symmetric - - Image
2021 4 2 18 -11.0 122.5 30 45 symmetric - - symmetric - - Image
2021 4 3 00 -10.8 122.7 30 45 symmetric - - symmetric - - Image
2021 4 3 06 -10.9 123.0 30 45 symmetric - - symmetric - - Image
2021 4 3 12 -10.7 123.4 30 45 symmetric - - symmetric - - Image
2021 4 3 18 -10.7 123.5 30 45 symmetric - - symmetric - - Image
2021 4 4 00 -10.5 123.6 30 45 symmetric - - symmetric - - Image
2021 4 4 06 -10.3 123.5 30 45 symmetric - - symmetric - - Image
2021 4 4 12 -10.3 123.1 35 50 symmetric - - symmetric - - Image
2021 4 4 18 -10.4 122.9 40 55 symmetric - - symmetric - - Image
2021 4 5 00 -10.6 122.4 40 55 symmetric - - symmetric - - Image
2021 4 5 06 -10.7 121.9 50 70 symmetric - - symmetric - - Image
2021 4 5 09 -10.8 121.7 50 70 symmetric - - symmetric - - Image
2021 4 5 12 -11.0 121.3 50 70 symmetric - - symmetric - - Image
2021 4 5 18 -11.1 120.4 55 75 symmetric - - symmetric - - Image
2021 4 6 00 -11.1 119.9 55 70 symmetric - - symmetric - - Image
2021 4 6 06 -11.4 119.6 50 70 symmetric - - symmetric - - Image
2021 4 6 12 -11.8 119.2 40 55 symmetric - - symmetric - - Image
2021 4 6 18 -12.3 118.8 35 50 symmetric - - symmetric - - Image
2021 4 7 00 -13.1 118.1 35 50 symmetric - - symmetric - - Image
2021 4 7 06 -14.0 116.8 35 50 symmetric - - symmetric - - Image
2021 4 7 12 -14.8 115.7 35 50 symmetric - - symmetric - - Image
2021 4 7 18 -15.4 114.0 40 55 symmetric - - symmetric - - Image
2021 4 8 00 -16.0 112.6 40 55 symmetric - - symmetric - - Image
2021 4 8 06 -16.8 111.8 40 55 symmetric - - symmetric - - Image
2021 4 8 12 -17.4 111.5 40 55 symmetric - - symmetric - - Image
2021 4 8 18 -18.2 110.7 35 50 symmetric - - symmetric - - Image
2021 4 9 00 -18.9 110.1 40 55 symmetric - - symmetric - - Image
2021 4 9 06 -19.7 109.4 45 65 symmetric - - symmetric - - Image
2021 4 9 12 -20.1 108.8 50 70 symmetric - - symmetric - - Image
2021 4 9 18 -20.3 108.3 50 70 symmetric - - symmetric - - Image
2021 4 10 00 -20.5 108.0 55 75 symmetric - - symmetric - - Image
2021 4 10 06 -20.9 108.0 55 75 symmetric - - symmetric - - Image
2021 4 10 12 -21.3 108.7 55 75 symmetric - - symmetric - - Image
2021 4 10 18 -22.3 109.5 60 85 symmetric - - symmetric - - Image
2021 4 11 00 -24.2 110.5 60 85 symmetric - - symmetric - - Image
2021 4 11 06 -26.0 112.0 65 90 symmetric - - symmetric - - Image
2021 4 11 12 -28.0 114.3 65 90 symmetric - - symmetric - - Image
2021 4 11 18 -30.5 117.2 50 70 symmetric - - symmetric - - Image
2021 4 12 00 -32.5 120.2 30 50 symmetric - - symmetric - - Image
2021 4 12 06 -35.3 123.6 30 45 symmetric - - symmetric - - Image
< Cyclone 202121 2021 Season Cyclone 202123 >

Help